Time;durP1;ratioP1;P1;durP2;ratioP2;P2;SDS_P1;SDS_P2;PMS_P1;PMS_P2;Temp;Humidity;BMP_temperature;BMP_pressure;BME280_temperature;BME280_humidity;BME280_pressure;Samples;Min_cycle;Max_cycle;Signal;HPM_P1;HPM_P2
2024/01/14 00:01:56;;;;;;;8.55;6.97;;;;;;;;;;5042310;28;20045;-79
2024/01/14 00:04:24;;;;;;;6.78;5.35;;;;;;;;;;5047964;28;20352;-79
2024/01/14 00:06:52;;;;;;;7.72;3.42;;;;;;;;;;5041420;28;20076;-79
2024/01/14 00:09:19;;;;;;;16.27;9.50;;;;;;;;;;5026294;28;20049;-79
2024/01/14 00:11:48;;;;;;;10.77;7.47;;;;;;;;;;5027682;28;20434;-79
2024/01/14 00:14:16;;;;;;;7.10;4.88;;;;;;;;;;5028320;28;20114;-79
2024/01/14 00:16:44;;;;;;;23.92;10.68;;;;;;;;;;5025417;28;20097;-79
2024/01/14 00:19:11;;;;;;;25.42;10.70;;;;;;;;;;5023381;28;20045;-79
2024/01/14 00:21:39;;;;;;;10.90;6.85;;;;;;;;;;5012601;28;20060;-80
2024/01/14 00:24:07;;;;;;;21.35;11.32;;;;;;;;;;5028143;28;20276;-79
2024/01/14 00:26:35;;;;;;;6.72;6.05;;;;;;;;;;5024175;28;20068;-79
2024/01/14 00:29:03;;;;;;;16.38;9.75;;;;;;;;;;5023600;28;20042;-79
2024/01/14 00:31:30;;;;;;;17.27;10.60;;;;;;;;;;5009492;28;20049;-80
2024/01/14 00:33:58;;;;;;;21.35;11.75;;;;;;;;;;5023327;28;20037;-79
2024/01/14 00:36:26;;;;;;;7.88;5.07;;;;;;;;;;5023648;28;20121;-79
2024/01/14 00:38:54;;;;;;;20.17;10.02;;;;;;;;;;5024365;28;20077;-79
2024/01/14 00:41:21;;;;;;;1.33;1.23;;;;;;;;;;4998853;28;20466;-79
2024/01/14 00:43:49;;;;;;;7.70;2.28;;;;;;;;;;5018704;28;20120;-79
2024/01/14 00:46:17;;;;;;;4.72;4.10;;;;;;;;;;5025904;28;20136;-79
2024/01/14 00:48:45;;;;;;;6.32;4.78;;;;;;;;;;5020094;28;20045;-79
2024/01/14 00:51:12;;;;;;;12.52;7.85;;;;;;;;;;5025256;28;20042;-79
2024/01/14 00:53:40;;;;;;;2.70;2.50;;;;;;;;;;5013476;28;20046;-79
2024/01/14 00:56:08;;;;;;;1.65;0.93;;;;;;;;;;5027916;28;20687;-79
2024/01/14 00:58:35;;;;;;;4.90;2.60;;;;;;;;;;5006941;28;20529;-79
2024/01/14 01:01:03;;;;;;;1.58;1.58;;;;;;;;;;5022464;28;20057;-79
2024/01/14 01:03:31;;;;;;;1.85;1.75;;;;;;;;;;5009714;28;20111;-80
2024/01/14 01:05:58;;;;;;;1.05;0.32;;;;;;;;;;5019977;28;20415;-80
2024/01/14 01:08:26;;;;;;;4.97;1.75;;;;;;;;;;5023120;28;20109;-79
2024/01/14 01:10:54;;;;;;;7.88;5.45;;;;;;;;;;5022745;28;20037;-79
2024/01/14 01:13:21;;;;;;;4.18;3.47;;;;;;;;;;5006722;28;20041;-79
2024/01/14 01:15:49;;;;;;;7.68;6.43;;;;;;;;;;5020786;28;20042;-79
2024/01/14 01:18:17;;;;;;;6.45;4.28;;;;;;;;;;5024950;28;20057;-79
2024/01/14 01:20:45;;;;;;;16.15;7.55;;;;;;;;;;5019497;28;20072;-79
2024/01/14 01:23:13;;;;;;;4.68;3.85;;;;;;;;;;5004623;28;20053;-79
2024/01/14 01:25:40;;;;;;;16.80;6.82;;;;;;;;;;5002982;28;20050;-79
2024/01/14 01:28:09;;;;;;;8.13;2.17;;;;;;;;;;5016374;28;20817;-79
2024/01/14 01:30:37;;;;;;;6.00;5.38;;;;;;;;;;5022133;28;20095;-79
2024/01/14 01:33:05;;;;;;;0.63;0.63;;;;;;;;;;5003554;28;20414;-79
2024/01/14 01:35:33;;;;;;;5.25;4.13;;;;;;;;;;5019190;28;20061;-79
2024/01/14 01:38:01;;;;;;;13.07;7.55;;;;;;;;;;5018566;28;20122;-79
2024/01/14 01:40:28;;;;;;;6.35;3.17;;;;;;;;;;5003344;28;20739;-79
2024/01/14 01:42:56;;;;;;;13.68;8.68;;;;;;;;;;5026304;28;20040;-79
2024/01/14 01:45:23;;;;;;;8.63;6.72;;;;;;;;;;5022174;28;20430;-79
2024/01/14 01:47:51;;;;;;;25.60;12.23;;;;;;;;;;5019391;28;20146;-79
2024/01/14 01:50:19;;;;;;;23.33;10.27;;;;;;;;;;5025465;28;20578;-80
2024/01/14 01:52:47;;;;;;;7.55;1.88;;;;;;;;;;5022992;28;20045;-79
2024/01/14 01:55:15;;;;;;;6.65;5.05;;;;;;;;;;5005567;28;20411;-79
2024/01/14 01:57:42;;;;;;;11.60;5.78;;;;;;;;;;5021337;28;20053;-79
2024/01/14 02:00:13;;;;;;;2.38;1.98;;;;;;;;;;5001493;28;20050;-79
2024/01/14 02:02:44;;;;;;;3.40;2.90;;;;;;;;;;5027452;28;20045;-79
2024/01/14 02:05:12;;;;;;;15.07;9.07;;;;;;;;;;5023380;28;20053;-79
2024/01/14 02:07:40;;;;;;;9.18;6.20;;;;;;;;;;5021228;28;20060;-79
2024/01/14 02:10:08;;;;;;;3.15;2.90;;;;;;;;;;5018634;28;20127;-79
2024/01/14 02:12:35;;;;;;;5.78;2.45;;;;;;;;;;5024939;28;20064;-79
2024/01/14 02:15:03;;;;;;;6.10;4.68;;;;;;;;;;5019261;28;20452;-79
2024/01/14 02:17:31;;;;;;;7.47;3.05;;;;;;;;;;5024395;28;20550;-79
2024/01/14 02:19:59;;;;;;;0.85;0.85;;;;;;;;;;5006045;28;20499;-79
2024/01/14 02:22:29;;;;;;;0.40;0.40;;;;;;;;;;5023912;28;20076;-79
2024/01/14 02:24:56;;;;;;;0.77;0.77;;;;;;;;;;5005773;28;20065;-79
2024/01/14 02:27:24;;;;;;;7.75;6.35;;;;;;;;;;5002490;28;20062;-79
2024/01/14 02:29:54;;;;;;;19.38;10.45;;;;;;;;;;5024837;28;20480;-79
2024/01/14 02:32:21;;;;;;;14.65;8.18;;;;;;;;;;5024174;28;20050;-79
2024/01/14 02:34:49;;;;;;;11.98;6.88;;;;;;;;;;5008447;28;20096;-77
2024/01/14 02:37:16;;;;;;;5.10;4.30;;;;;;;;;;5003330;28;20045;-77
2024/01/14 02:39:44;;;;;;;12.25;6.72;;;;;;;;;;5022773;28;20115;-77
2024/01/14 02:42:12;;;;;;;7.00;5.25;;;;;;;;;;5020660;28;20108;-77
2024/01/14 02:44:40;;;;;;;7.50;2.53;;;;;;;;;;5021282;28;20058;-77
2024/01/14 02:47:07;;;;;;;15.52;9.55;;;;;;;;;;5004147;28;20072;-77
2024/01/14 02:49:35;;;;;;;6.15;2.83;;;;;;;;;;5015377;28;20500;-77
2024/01/14 02:52:03;;;;;;;9.07;5.85;;;;;;;;;;5029126;28;20049;-77
2024/01/14 02:54:31;;;;;;;13.80;6.45;;;;;;;;;;5038658;28;21018;-77
2024/01/14 02:56:58;;;;;;;6.82;2.20;;;;;;;;;;5033549;28;20128;-77
2024/01/14 02:59:27;;;;;;;9.85;5.75;;;;;;;;;;5037314;28;20073;-77
2024/01/14 03:01:54;;;;;;;14.77;7.43;;;;;;;;;;5019698;28;20503;-77
2024/01/14 03:04:22;;;;;;;14.38;8.05;;;;;;;;;;5025884;28;20150;-77
2024/01/14 03:06:50;;;;;;;0.68;0.68;;;;;;;;;;5024350;28;20049;-77
2024/01/14 03:09:17;;;;;;;0.52;0.52;;;;;;;;;;5006278;28;20209;-77
2024/01/14 03:11:45;;;;;;;0.57;0.57;;;;;;;;;;5003498;28;20052;-77
2024/01/14 03:14:12;;;;;;;1.27;1.20;;;;;;;;;;5025434;28;20056;-77
2024/01/14 03:16:40;;;;;;;5.72;4.45;;;;;;;;;;5023192;28;20136;-77
2024/01/14 03:19:07;;;;;;;1.75;0.57;;;;;;;;;;5019241;28;20049;-77
2024/01/14 03:21:35;;;;;;;0.43;0.43;;;;;;;;;;5029830;28;20058;-77
2024/01/14 03:24:03;;;;;;;0.28;0.28;;;;;;;;;;5027347;28;20053;-77
2024/01/14 03:26:31;;;;;;;0.70;0.70;;;;;;;;;;5028268;28;20077;-77
2024/01/14 03:28:59;;;;;;;0.47;0.45;;;;;;;;;;5016538;28;20115;-77
2024/01/14 03:31:26;;;;;;;1.33;1.25;;;;;;;;;;5025456;28;20045;-77
2024/01/14 03:33:54;;;;;;;1.17;1.08;;;;;;;;;;5006162;28;20049;-77
2024/01/14 03:36:22;;;;;;;0.17;0.17;;;;;;;;;;5026247;28;20503;-77
2024/01/14 03:38:49;;;;;;;2.40;2.20;;;;;;;;;;5026508;28;20112;-77
2024/01/14 03:41:17;;;;;;;2.88;1.83;;;;;;;;;;5014283;28;20220;-77
2024/01/14 03:43:45;;;;;;;0.00;0.00;;;;;;;;;;5018627;28;20049;-77
2024/01/14 03:46:12;;;;;;;3.70;2.00;;;;;;;;;;5006047;28;20400;-77
2024/01/14 03:48:40;;;;;;;1.92;0.90;;;;;;;;;;5024029;28;20495;-77
2024/01/14 03:51:08;;;;;;;2.60;2.40;;;;;;;;;;4999134;28;20050;-77
2024/01/14 03:53:35;;;;;;;6.72;1.73;;;;;;;;;;5025227;28;20072;-77
2024/01/14 03:56:03;;;;;;;2.10;1.90;;;;;;;;;;5022908;28;20054;-77
2024/01/14 03:58:30;;;;;;;0.57;0.57;;;;;;;;;;5023850;28;20041;-78
2024/01/14 04:00:58;;;;;;;0.60;0.60;;;;;;;;;;5019749;28;20123;-77
2024/01/14 04:03:25;;;;;;;0.85;0.73;;;;;;;;;;5022855;28;20057;-77
2024/01/14 04:05:53;;;;;;;2.53;2.33;;;;;;;;;;5019899;28;21004;-77
2024/01/14 04:08:21;;;;;;;0.82;0.82;;;;;;;;;;5015316;28;20132;-77
2024/01/14 04:10:50;;;;;;;0.60;0.60;;;;;;;;;;5021697;28;20554;-77
2024/01/14 04:13:17;;;;;;;0.32;0.32;;;;;;;;;;5026129;28;20041;-77
2024/01/14 04:15:45;;;;;;;0.38;0.38;;;;;;;;;;5023847;28;20042;-77
2024/01/14 04:18:12;;;;;;;0.20;0.20;;;;;;;;;;5028166;28;20045;-77
2024/01/14 04:20:40;;;;;;;2.28;1.95;;;;;;;;;;5027764;28;20518;-79
2024/01/14 04:23:08;;;;;;;0.10;0.10;;;;;;;;;;5001364;28;20517;-79
2024/01/14 04:25:35;;;;;;;0.80;0.80;;;;;;;;;;5011720;28;20486;-79
2024/01/14 04:28:03;;;;;;;4.32;2.83;;;;;;;;;;5022367;28;20052;-79
2024/01/14 04:30:30;;;;;;;2.80;2.60;;;;;;;;;;5024506;28;20045;-79
2024/01/14 04:32:58;;;;;;;5.28;1.85;;;;;;;;;;5024232;28;20103;-79
2024/01/14 04:35:26;;;;;;;2.80;2.60;;;;;;;;;;5016247;28;20181;-79
2024/01/14 04:37:54;;;;;;;9.13;4.28;;;;;;;;;;5024441;28;20045;-77
2024/01/14 04:40:23;;;;;;;0.25;0.25;;;;;;;;;;5018891;28;20050;-77
2024/01/14 04:42:50;;;;;;;2.15;1.95;;;;;;;;;;5023924;28;20054;-77
2024/01/14 04:45:18;;;;;;;1.88;1.55;;;;;;;;;;5020402;28;20120;-77
2024/01/14 04:47:46;;;;;;;0.47;0.47;;;;;;;;;;5008216;28;20397;-77
2024/01/14 04:50:14;;;;;;;2.72;2.53;;;;;;;;;;5022920;28;20437;-77
2024/01/14 04:52:42;;;;;;;0.10;0.10;;;;;;;;;;5025361;28;20057;-77
2024/01/14 04:55:10;;;;;;;1.92;1.77;;;;;;;;;;5019484;28;20123;-77
2024/01/14 04:57:38;;;;;;;0.30;0.30;;;;;;;;;;5013253;28;20029;-77
2024/01/14 05:00:05;;;;;;;4.20;2.72;;;;;;;;;;5025341;28;20054;-77
2024/01/14 05:02:33;;;;;;;6.50;4.78;;;;;;;;;;4999649;28;20056;-79
2024/01/14 05:05:00;;;;;;;2.05;1.85;;;;;;;;;;5004126;28;20048;-79
2024/01/14 05:07:28;;;;;;;0.10;0.10;;;;;;;;;;5024397;28;20056;-77
2024/01/14 05:09:56;;;;;;;1.75;1.02;;;;;;;;;;5017669;28;20127;-77
2024/01/14 05:12:24;;;;;;;2.40;1.77;;;;;;;;;;5001298;28;20043;-77
2024/01/14 05:14:51;;;;;;;6.03;5.18;;;;;;;;;;5014820;28;20045;-77
2024/01/14 05:17:19;;;;;;;0.57;0.57;;;;;;;;;;4990643;28;20080;-77
2024/01/14 05:19:47;;;;;;;10.80;6.82;;;;;;;;;;5013589;28;20072;-78
2024/01/14 05:22:15;;;;;;;3.28;2.42;;;;;;;;;;5006875;28;20038;-78
2024/01/14 05:24:43;;;;;;;4.25;3.22;;;;;;;;;;5000687;28;20045;-78
2024/01/14 05:27:11;;;;;;;0.10;0.10;;;;;;;;;;5019861;28;20051;-78
2024/01/14 05:29:42;;;;;;;7.97;3.85;;;;;;;;;;5019131;28;20079;-78
2024/01/14 05:32:13;;;;;;;3.20;2.97;;;;;;;;;;5023364;28;20059;-78
2024/01/14 05:34:45;;;;;;;1.48;0.98;;;;;;;;;;5019139;28;20042;-78
2024/01/14 05:37:12;;;;;;;0.32;0.32;;;;;;;;;;4994534;28;20054;-78
2024/01/14 05:39:40;;;;;;;3.65;1.55;;;;;;;;;;5021936;28;20052;-78
2024/01/14 05:42:08;;;;;;;3.08;2.53;;;;;;;;;;5012966;28;20625;-78
2024/01/14 05:44:36;;;;;;;3.83;2.22;;;;;;;;;;5019638;28;20042;-78
2024/01/14 05:47:04;;;;;;;3.75;0.90;;;;;;;;;;5011173;28;20329;-78
2024/01/14 05:49:32;;;;;;;2.60;1.83;;;;;;;;;;5013105;28;20139;-78
2024/01/14 05:51:59;;;;;;;5.05;3.72;;;;;;;;;;5028600;28;20053;-77
2024/01/14 05:54:27;;;;;;;0.75;0.75;;;;;;;;;;5017934;28;25603;-78
2024/01/14 05:56:57;;;;;;;8.88;5.53;;;;;;;;;;5023354;28;20403;-78
2024/01/14 05:59:25;;;;;;;0.10;0.10;;;;;;;;;;5024344;28;20037;-78
2024/01/14 06:01:52;;;;;;;6.50;3.55;;;;;;;;;;5007246;28;20148;-78
2024/01/14 06:04:20;;;;;;;8.82;5.90;;;;;;;;;;4996272;28;20046;-77
2024/01/14 06:06:47;;;;;;;5.50;3.22;;;;;;;;;;4998796;28;20588;-78
2024/01/14 06:09:16;;;;;;;6.00;4.55;;;;;;;;;;5007302;28;20392;-78
2024/01/14 06:11:44;;;;;;;2.00;1.15;;;;;;;;;;5018346;28;20045;-78
2024/01/14 06:14:12;;;;;;;0.22;0.22;;;;;;;;;;5017234;28;20077;-78
2024/01/14 06:16:39;;;;;;;4.35;3.97;;;;;;;;;;5020417;28;20050;-78
2024/01/14 06:19:07;;;;;;;12.18;6.57;;;;;;;;;;5000679;28;20038;-77
2024/01/14 06:21:40;;;;;;;1.85;0.88;;;;;;;;;;5012803;28;20049;-78
2024/01/14 06:24:08;;;;;;;6.97;5.38;;;;;;;;;;5015701;28;20053;-78
2024/01/14 06:26:36;;;;;;;4.47;2.33;;;;;;;;;;5005649;28;20081;-78
2024/01/14 06:29:03;;;;;;;4.22;3.47;;;;;;;;;;5008301;28;20790;-78
2024/01/14 06:31:31;;;;;;;4.05;1.63;;;;;;;;;;5015973;28;20167;-78
2024/01/14 06:34:00;;;;;;;0.10;0.10;;;;;;;;;;5021402;28;20041;-78
2024/01/14 06:36:27;;;;;;;3.03;2.33;;;;;;;;;;5020115;28;20332;-77
2024/01/14 06:38:55;;;;;;;2.03;1.65;;;;;;;;;;5021423;28;20042;-78
2024/01/14 06:41:27;;;;;;;3.70;3.42;;;;;;;;;;4999318;28;20347;-78
2024/01/14 06:43:55;;;;;;;10.20;5.75;;;;;;;;;;5010984;28;20406;-77
2024/01/14 06:46:23;;;;;;;2.35;2.25;;;;;;;;;;5013993;28;20057;-78
2024/01/14 06:48:50;;;;;;;2.90;2.67;;;;;;;;;;5016948;28;20136;-78
2024/01/14 06:51:18;;;;;;;3.30;2.58;;;;;;;;;;4996866;28;20052;-78
2024/01/14 06:53:46;;;;;;;0.50;0.50;;;;;;;;;;5022423;28;20104;-78
2024/01/14 06:56:16;;;;;;;4.68;0.95;;;;;;;;;;5019181;28;20119;-78
2024/01/14 06:58:44;;;;;;;2.28;0.65;;;;;;;;;;4999715;28;20682;-78
2024/01/14 07:01:11;;;;;;;0.20;0.20;;;;;;;;;;5008761;28;21487;-78
2024/01/14 07:03:41;;;;;;;0.20;0.20;;;;;;;;;;5012446;28;20045;-78
2024/01/14 07:06:09;;;;;;;2.55;2.35;;;;;;;;;;5021923;28;20562;-78
2024/01/14 07:08:37;;;;;;;2.10;1.90;;;;;;;;;;5014032;28;20140;-78
2024/01/14 07:11:05;;;;;;;3.00;1.70;;;;;;;;;;4996248;28;20091;-78
2024/01/14 07:13:33;;;;;;;8.48;7.40;;;;;;;;;;5011048;28;20332;-78
2024/01/14 07:16:00;;;;;;;0.68;0.68;;;;;;;;;;5009058;28;20045;-78
2024/01/14 07:18:28;;;;;;;0.20;0.20;;;;;;;;;;4994569;28;20129;-78
2024/01/14 07:20:56;;;;;;;1.25;0.70;;;;;;;;;;5008342;28;20067;-77
2024/01/14 07:23:23;;;;;;;22.90;6.85;;;;;;;;;;5010182;28;20068;-78
2024/01/14 07:26:19;;;;;;;0.63;0.63;;;;;;;;;;5006941;28;20036;-78
2024/01/14 07:28:54;;;;;;;2.33;2.20;;;;;;;;;;5007853;28;20165;-78
2024/01/14 07:31:26;;;;;;;0.28;0.28;;;;;;;;;;5019994;28;20053;-78
2024/01/14 07:33:54;;;;;;;0.98;0.93;;;;;;;;;;5010688;28;20059;-78
2024/01/14 07:36:22;;;;;;;0.73;0.73;;;;;;;;;;4989097;28;20052;-78
2024/01/14 07:38:51;;;;;;;0.43;0.43;;;;;;;;;;5015587;28;20045;-78
2024/01/14 07:41:19;;;;;;;1.88;1.63;;;;;;;;;;5016178;28;20061;-78
2024/01/14 07:43:46;;;;;;;6.32;3.58;;;;;;;;;;5018154;28;20053;-78
2024/01/14 07:46:14;;;;;;;7.38;3.50;;;;;;;;;;5023984;28;20990;-78
2024/01/14 07:48:42;;;;;;;2.15;1.58;;;;;;;;;;5026909;28;20232;-80
2024/01/14 07:51:10;;;;;;;4.75;4.10;;;;;;;;;;5009501;28;20225;-78
2024/01/14 07:53:38;;;;;;;15.60;7.68;;;;;;;;;;5008306;28;20037;-78
2024/01/14 07:56:05;;;;;;;4.38;1.95;;;;;;;;;;4998027;28;20091;-79
2024/01/14 07:58:33;;;;;;;2.58;2.38;;;;;;;;;;5014539;28;20076;-79
2024/01/14 08:01:01;;;;;;;1.65;1.55;;;;;;;;;;5011857;28;20041;-79
2024/01/14 08:03:30;;;;;;;0.90;0.70;;;;;;;;;;4998952;28;20088;-79
2024/01/14 08:05:59;;;;;;;2.97;2.70;;;;;;;;;;5024193;28;20594;-79
2024/01/14 08:08:34;;;;;;;0.10;0.10;;;;;;;;;;5019088;28;20056;-79
2024/01/14 08:11:02;;;;;;;1.75;1.65;;;;;;;;;;5011730;28;21003;-79
2024/01/14 08:13:30;;;;;;;2.67;2.20;;;;;;;;;;5009425;28;21210;-78
2024/01/14 08:15:59;;;;;;;0.15;0.15;;;;;;;;;;4994587;28;21973;-79
2024/01/14 08:18:30;;;;;;;0.85;0.85;;;;;;;;;;5012796;28;20500;-79
2024/01/14 08:20:59;;;;;;;3.15;2.88;;;;;;;;;;5014620;28;20042;-78
2024/01/14 08:23:32;;;;;;;5.47;1.95;;;;;;;;;;4973421;28;20042;-79
2024/01/14 08:26:01;;;;;;;3.38;2.33;;;;;;;;;;5000949;28;20061;-79
2024/01/14 08:28:29;;;;;;;0.50;0.50;;;;;;;;;;5019277;28;20495;-79
2024/01/14 08:30:57;;;;;;;2.67;2.50;;;;;;;;;;5027063;28;20065;-79
2024/01/14 08:33:25;;;;;;;0.85;0.50;;;;;;;;;;4987481;28;20052;-79
2024/01/14 08:35:54;;;;;;;2.05;1.38;;;;;;;;;;5000607;28;21368;-79
2024/01/14 08:38:23;;;;;;;1.65;1.48;;;;;;;;;;5005612;28;20254;-79
2024/01/14 08:40:51;;;;;;;4.78;4.22;;;;;;;;;;4983608;28;20052;-79
2024/01/14 08:43:19;;;;;;;5.63;3.90;;;;;;;;;;5003056;28;20044;-78
2024/01/14 08:45:46;;;;;;;1.92;1.83;;;;;;;;;;5026177;28;20183;-78
2024/01/14 08:48:15;;;;;;;4.82;4.32;;;;;;;;;;5020454;28;20495;-78
2024/01/14 08:50:42;;;;;;;2.95;2.60;;;;;;;;;;5000444;28;20042;-78
2024/01/14 08:53:10;;;;;;;2.58;2.40;;;;;;;;;;5021228;28;20053;-78
2024/01/14 08:55:37;;;;;;;1.15;1.05;;;;;;;;;;5018020;28;20120;-78
2024/01/14 08:58:05;;;;;;;6.40;4.60;;;;;;;;;;5009188;28;20124;-78
2024/01/14 09:00:33;;;;;;;2.30;1.30;;;;;;;;;;5021551;28;20103;-78
2024/01/14 09:03:01;;;;;;;9.98;6.85;;;;;;;;;;4992725;28;20037;-78
2024/01/14 09:05:42;;;;;;;1.70;1.58;;;;;;;;;;5014090;28;20050;-79
2024/01/14 09:08:21;;;;;;;4.57;2.60;;;;;;;;;;5015939;28;20045;-78
2024/01/14 09:10:59;;;;;;;1.23;1.23;;;;;;;;;;5016977;28;20052;-78
2024/01/14 09:14:47;;;;;;;4.20;1.58;;;;;;;;;;5020081;28;20095;-78
2024/01/14 09:17:47;;;;;;;8.00;3.00;;;;;;;;;;5034794;23;20061;-78
2024/01/14 09:20:15;;;;;;;3.22;2.13;;;;;;;;;;5040203;28;20069;-78
2024/01/14 09:22:43;;;;;;;7.40;5.97;;;;;;;;;;5037581;28;20538;-79
2024/01/14 09:25:11;;;;;;;1.60;1.50;;;;;;;;;;5045952;28;20506;-78
2024/01/14 09:27:40;;;;;;;0.20;0.20;;;;;;;;;;5059475;28;20127;-79
2024/01/14 09:30:08;;;;;;;2.50;2.30;;;;;;;;;;5053208;28;20110;-79
2024/01/14 09:32:36;;;;;;;4.50;1.50;;;;;;;;;;5063403;28;20049;-79
2024/01/14 09:35:04;;;;;;;18.50;9.32;;;;;;;;;;5056962;28;20059;-79
2024/01/14 09:37:31;;;;;;;14.73;9.00;;;;;;;;;;5060526;28;21001;-78
2024/01/14 09:39:59;;;;;;;0.77;0.77;;;;;;;;;;5055568;28;20720;-78
2024/01/14 09:42:36;;;;;;;10.48;6.88;;;;;;;;;;5051327;28;20106;-78
2024/01/14 09:45:05;;;;;;;4.38;2.75;;;;;;;;;;5039691;28;20067;-78
2024/01/14 09:47:34;;;;;;;3.45;3.15;;;;;;;;;;5055907;28;20037;-78
2024/01/14 09:50:01;;;;;;;1.05;1.05;;;;;;;;;;5058222;28;20056;-78
2024/01/14 09:52:31;;;;;;;18.60;11.13;;;;;;;;;;5054855;28;20500;-79
2024/01/14 09:54:59;;;;;;;15.82;8.27;;;;;;;;;;5057977;28;20426;-79
2024/01/14 09:57:28;;;;;;;3.50;2.20;;;;;;;;;;5063320;28;20057;-79
2024/01/14 09:59:56;;;;;;;4.93;3.28;;;;;;;;;;5060656;28;20460;-79
2024/01/14 10:02:26;;;;;;;2.42;1.17;;;;;;;;;;5053679;28;20098;-79
2024/01/14 10:04:55;;;;;;;0.55;0.55;;;;;;;;;;5057979;28;20131;-78
2024/01/14 10:07:23;;;;;;;1.45;1.35;;;;;;;;;;5050212;28;20045;-79
2024/01/14 10:09:52;;;;;;;1.42;1.00;;;;;;;;;;5030400;28;20469;-79
2024/01/14 10:12:20;;;;;;;1.98;1.85;;;;;;;;;;5051127;28;20040;-79
2024/01/14 10:14:57;;;;;;;4.00;2.95;;;;;;;;;;5057848;28;20049;-79
2024/01/14 10:17:26;;;;;;;0.93;0.93;;;;;;;;;;5033547;28;20051;-80
2024/01/14 10:20:00;;;;;;;0.88;0.88;;;;;;;;;;5039033;28;20052;-79
2024/01/14 10:22:28;;;;;;;3.33;2.30;;;;;;;;;;5057659;28;20518;-79
2024/01/14 10:24:56;;;;;;;3.22;1.13;;;;;;;;;;5056366;28;20064;-79
2024/01/14 10:27:25;;;;;;;5.90;3.53;;;;;;;;;;5059951;28;20502;-79
2024/01/14 10:30:11;;;;;;;9.70;5.72;;;;;;;;;;5059795;28;20060;-79
2024/01/14 10:32:41;;;;;;;1.50;1.02;;;;;;;;;;5064392;28;20072;-80
2024/01/14 10:35:29;;;;;;;3.30;2.22;;;;;;;;;;5061719;28;20040;-79
2024/01/14 10:37:58;;;;;;;3.70;2.65;;;;;;;;;;5045508;28;20048;-79
2024/01/14 10:40:26;;;;;;;1.00;1.00;;;;;;;;;;5066319;28;20090;-79
2024/01/14 10:42:54;;;;;;;5.45;4.30;;;;;;;;;;5063115;28;20048;-80
2024/01/14 10:45:22;;;;;;;5.43;3.22;;;;;;;;;;5057508;28;20052;-79
2024/01/14 10:47:53;;;;;;;11.55;6.22;;;;;;;;;;5063721;28;20040;-79
2024/01/14 10:50:23;;;;;;;1.45;1.35;;;;;;;;;;5043880;28;20048;-79
2024/01/14 10:52:56;;;;;;;3.30;2.85;;;;;;;;;;5044222;28;20401;-79
2024/01/14 10:55:24;;;;;;;2.08;1.90;;;;;;;;;;5062770;28;20112;-79
2024/01/14 10:57:52;;;;;;;4.75;4.18;;;;;;;;;;5058736;28;20037;-79
2024/01/14 11:00:20;;;;;;;3.42;1.98;;;;;;;;;;5028130;28;20044;-79
2024/01/14 11:02:48;;;;;;;7.22;4.53;;;;;;;;;;5059147;28;20045;-79
2024/01/14 11:05:16;;;;;;;10.40;6.25;;;;;;;;;;5061323;28;20135;-79
2024/01/14 11:07:44;;;;;;;4.18;2.42;;;;;;;;;;5044309;28;20090;-79
2024/01/14 11:10:12;;;;;;;9.80;4.88;;;;;;;;;;5063722;28;20135;-79
2024/01/14 11:12:57;;;;;;;5.45;4.35;;;;;;;;;;5060842;28;20098;-79
2024/01/14 11:15:30;;;;;;;8.93;5.03;;;;;;;;;;5049737;28;20541;-80
2024/01/14 11:17:57;;;;;;;;;;;;;;;;;;5068744;28;20224;-79
2024/01/14 11:20:28;;;;;;;2.53;1.85;;;;;;;;;;5049981;28;19924;-79
2024/01/14 11:23:08;;;;;;;2.67;2.35;;;;;;;;;;5062830;28;20464;-79
2024/01/14 11:25:36;;;;;;;5.22;4.20;;;;;;;;;;5068238;28;20056;-79
2024/01/14 11:28:06;;;;;;;9.02;6.05;;;;;;;;;;5064580;28;20049;-79
2024/01/14 11:30:59;;;;;;;6.75;4.40;;;;;;;;;;5066119;28;20063;-79
2024/01/14 11:33:28;;;;;;;0.32;0.32;;;;;;;;;;5068953;28;20052;-79
2024/01/14 11:35:56;;;;;;;0.40;0.40;;;;;;;;;;5067504;28;20055;-79
2024/01/14 11:38:56;;;;;;;1.98;1.40;;;;;;;;;;5067267;28;20048;-79
2024/01/14 11:41:25;;;;;;;2.53;2.33;;;;;;;;;;5022542;28;20511;-79
2024/01/14 11:43:54;;;;;;;3.38;3.08;;;;;;;;;;5064899;28;20040;-78
2024/01/14 11:46:34;;;;;;;0.98;0.90;;;;;;;;;;5062432;28;20584;-79
2024/01/14 11:49:06;;;;;;;1.52;0.50;;;;;;;;;;5066334;28;20299;-80
2024/01/14 11:51:57;;;;;;;1.10;1.08;;;;;;;;;;5064164;28;20353;-79
2024/01/14 11:54:26;;;;;;;1.00;0.73;;;;;;;;;;5065149;28;20070;-79
2024/01/14 11:56:54;;;;;;;0.20;0.20;;;;;;;;;;5066949;28;20259;-80
2024/01/14 11:59:21;;;;;;;2.58;2.03;;;;;;;;;;5051971;28;20064;-80
2024/01/14 12:02:17;;;;;;;3.63;2.42;;;;;;;;;;5066503;28;20044;-80
2024/01/14 12:04:45;;;;;;;5.78;2.38;;;;;;;;;;5065263;28;20045;-79
2024/01/14 12:07:25;;;;;;;2.10;1.92;;;;;;;;;;5063974;28;20044;-79
2024/01/14 12:09:55;;;;;;;5.25;4.00;;;;;;;;;;5068989;28;20045;-79
2024/01/14 12:12:26;;;;;;;5.28;3.10;;;;;;;;;;5062365;28;20052;-79
2024/01/14 12:14:55;;;;;;;;;;;;;;;;;;5064659;28;22869;-80
2024/01/14 12:17:22;;;;;;;2.15;2.05;;;;;;;;;;5049475;28;20037;-79
2024/01/14 12:20:08;;;;;;;5.15;3.97;;;;;;;;;;5068000;28;20066;-80
2024/01/14 12:22:36;;;;;;;9.32;5.25;;;;;;;;;;5039504;28;20080;-79
2024/01/14 12:25:04;;;;;;;1.67;1.10;;;;;;;;;;5067396;28;20076;-80
2024/01/14 12:27:32;;;;;;;0.40;0.32;;;;;;;;;;5071050;28;20427;-80
2024/01/14 12:29:59;;;;;;;1.23;1.13;;;;;;;;;;5070842;28;20050;-80
2024/01/14 12:32:27;;;;;;;3.35;3.05;;;;;;;;;;5067510;28;20056;-79
2024/01/14 12:34:54;;;;;;;0.30;0.30;;;;;;;;;;5054601;28;20151;-79
2024/01/14 12:37:22;;;;;;;2.40;2.15;;;;;;;;;;5040857;28;20040;-79
2024/01/14 12:39:52;;;;;;;2.65;1.65;;;;;;;;;;5049774;28;20045;-79
2024/01/14 12:42:20;;;;;;;4.38;2.95;;;;;;;;;;5067414;28;20056;-80
2024/01/14 12:44:48;;;;;;;0.15;0.15;;;;;;;;;;5070839;28;20488;-80
2024/01/14 12:47:18;;;;;;;0.90;0.90;;;;;;;;;;5070871;28;20456;-80
2024/01/14 12:49:46;;;;;;;1.45;1.33;;;;;;;;;;5068217;28;20243;-80
2024/01/14 12:52:14;;;;;;;2.55;1.30;;;;;;;;;;5067692;28;20377;-80
2024/01/14 12:54:48;;;;;;;2.15;2.00;;;;;;;;;;5067852;28;20346;-80
2024/01/14 12:57:17;;;;;;;1.45;1.45;;;;;;;;;;5066901;28;20562;-80
2024/01/14 12:59:51;;;;;;;1.35;1.25;;;;;;;;;;5066165;28;20059;-80
2024/01/14 13:02:18;;;;;;;0.98;0.98;;;;;;;;;;5057773;28;20057;-79
2024/01/14 13:04:46;;;;;;;3.17;2.60;;;;;;;;;;5031580;28;20483;-80
2024/01/14 13:07:14;;;;;;;0.70;0.20;;;;;;;;;;5062533;28;20052;-79
2024/01/14 13:09:42;;;;;;;3.28;2.15;;;;;;;;;;5064148;28;20106;-79
2024/01/14 13:12:10;;;;;;;1.15;1.10;;;;;;;;;;5064523;28;20045;-78
2024/01/14 13:14:38;;;;;;;2.28;1.50;;;;;;;;;;5064805;28;20078;-79
2024/01/14 13:17:06;;;;;;;3.55;2.00;;;;;;;;;;5064892;28;20052;-79
2024/01/14 13:19:33;;;;;;;0.93;0.93;;;;;;;;;;5060291;28;20057;-79
2024/01/14 13:22:01;;;;;;;1.85;1.05;;;;;;;;;;5059936;28;20043;-79
2024/01/14 13:24:30;;;;;;;0.68;0.68;;;;;;;;;;5066700;28;20506;-79
2024/01/14 13:26:58;;;;;;;2.83;1.70;;;;;;;;;;5063810;28;20072;-79
2024/01/14 13:29:26;;;;;;;6.10;2.13;;;;;;;;;;5063298;28;20040;-78
2024/01/14 13:31:53;;;;;;;2.03;1.58;;;;;;;;;;5066814;28;20048;-79
2024/01/14 13:34:22;;;;;;;0.40;0.40;;;;;;;;;;5064941;28;20048;-79
2024/01/14 13:36:50;;;;;;;0.43;0.40;;;;;;;;;;5064369;28;20736;-79
2024/01/14 13:39:18;;;;;;;1.70;1.60;;;;;;;;;;5066386;28;20082;-78
2024/01/14 13:41:45;;;;;;;0.63;0.63;;;;;;;;;;5044604;28;20879;-80
2024/01/14 13:44:13;;;;;;;2.90;2.58;;;;;;;;;;5059988;28;20044;-80
2024/01/14 13:46:45;;;;;;;0.73;0.73;;;;;;;;;;5064666;28;20070;-80
2024/01/14 13:49:14;;;;;;;0.75;0.75;;;;;;;;;;5067879;28;20582;-79
2024/01/14 13:51:42;;;;;;;2.78;1.60;;;;;;;;;;5066306;28;20051;-80
2024/01/14 13:54:11;;;;;;;0.82;0.82;;;;;;;;;;5067766;28;20067;-80
2024/01/14 13:56:42;;;;;;;3.80;2.28;;;;;;;;;;5070002;28;20053;-79
2024/01/14 13:59:10;;;;;;;0.80;0.45;;;;;;;;;;5065819;28;20498;-80
2024/01/14 14:01:38;;;;;;;0.88;0.88;;;;;;;;;;5065769;28;20049;-80
2024/01/14 14:04:07;;;;;;;2.08;1.60;;;;;;;;;;5067827;28;20044;-80
2024/01/14 14:06:36;;;;;;;2.03;1.50;;;;;;;;;;5062766;28;20048;-80
2024/01/14 14:09:06;;;;;;;1.45;1.35;;;;;;;;;;5068371;28;20048;-80
2024/01/14 14:11:36;;;;;;;2.20;2.00;;;;;;;;;;5068136;28;20107;-80
2024/01/14 14:14:04;;;;;;;1.65;1.35;;;;;;;;;;5047463;28;20101;-80
2024/01/14 14:16:33;;;;;;;1.20;0.88;;;;;;;;;;5062375;28;20052;-79
2024/01/14 14:19:10;;;;;;;1.23;0.90;;;;;;;;;;5065805;28;20392;-79
2024/01/14 14:21:39;;;;;;;0.10;0.10;;;;;;;;;;5065016;28;20052;-80
2024/01/14 14:24:26;;;;;;;1.15;0.82;;;;;;;;;;5053738;28;20047;-79
2024/01/14 14:26:54;;;;;;;1.55;1.40;;;;;;;;;;5067624;28;20594;-79
2024/01/14 14:29:22;;;;;;;1.70;0.93;;;;;;;;;;5069439;28;20126;-79
2024/01/14 14:31:54;;;;;;;0.63;0.63;;;;;;;;;;5053487;28;20537;-80
2024/01/14 14:34:25;;;;;;;0.30;0.30;;;;;;;;;;5067503;28;20048;-80
2024/01/14 14:36:54;;;;;;;0.65;0.65;;;;;;;;;;5049108;28;20288;-79
2024/01/14 14:39:27;;;;;;;0.25;0.25;;;;;;;;;;5070624;28;20036;-80
2024/01/14 14:41:56;;;;;;;0.85;0.85;;;;;;;;;;5070721;28;20101;-79
2024/01/14 14:44:24;;;;;;;1.40;1.30;;;;;;;;;;5068346;28;20041;-79
2024/01/14 14:46:51;;;;;;;0.63;0.57;;;;;;;;;;5070679;28;20068;-79
2024/01/14 14:49:19;;;;;;;2.45;2.17;;;;;;;;;;5072450;28;20127;-79
2024/01/14 14:51:48;;;;;;;4.70;3.05;;;;;;;;;;5069497;28;20044;-80
2024/01/14 14:54:15;;;;;;;0.65;0.65;;;;;;;;;;5067350;28;20063;-79